Time;durP1;ratioP1;P1;durP2;ratioP2;P2;SDS_P1;SDS_P2;PMS_P1;PMS_P2;Temp;Humidity;BMP_temperature;BMP_pressure;BME280_temperature;BME280_humidity;BME280_pressure;Samples;Min_cycle;Max_cycle;Signal;HPM_P1;HPM_P2
2023/06/15 00:01:15;;;;;;;24.07;12.20;;;14.20;82.80;;;;;;5065085;28;20497;-59
2023/06/15 00:03:43;;;;;;;23.77;12.27;;;14.10;82.30;;;;;;5071686;27;21025;-59
2023/06/15 00:06:10;;;;;;;25.10;11.47;;;14.00;83.30;;;;;;5073086;28;20479;-59
2023/06/15 00:08:37;;;;;;;25.77;12.67;;;14.00;83.30;;;;;;5064082;28;20600;-59
2023/06/15 00:11:05;;;;;;;22.63;11.10;;;14.00;83.00;;;;;;5074029;27;20486;-60
2023/06/15 00:13:32;;;;;;;28.47;12.53;;;13.90;82.80;;;;;;5075692;27;20489;-59
2023/06/15 00:15:58;;;;;;;29.90;14.13;;;13.90;82.20;;;;;;5072274;27;20477;-60
2023/06/15 00:18:26;;;;;;;15.77;10.70;;;13.90;82.50;;;;;;5071363;27;20482;-59
2023/06/15 00:20:53;;;;;;;20.83;11.17;;;14.00;82.90;;;;;;5068391;27;21331;-59
2023/06/15 00:23:26;;;;;;;26.43;12.97;;;14.00;82.80;;;;;;5083172;27;20508;-60
2023/06/15 00:25:53;;;;;;;28.90;13.90;;;14.00;82.50;;;;;;5070898;27;20864;-59
2023/06/15 00:28:21;;;;;;;32.37;12.63;;;12.30;80.70;;;;;;5083468;28;20486;-59
2023/06/15 00:30:48;;;;;;;23.70;12.57;;;13.90;82.40;;;;;;5064954;27;21125;-59
2023/06/15 00:33:15;;;;;;;27.90;12.70;;;13.80;83.50;;;;;;5099637;27;21021;-59
2023/06/15 00:35:41;;;;;;;22.40;10.50;;;13.80;83.60;;;;;;5086623;27;20470;-59
2023/06/15 00:38:08;;;;;;;19.33;10.47;;;13.70;83.40;;;;;;5080772;27;22652;-59
2023/06/15 00:40:39;;;;;;;26.57;11.50;;;13.60;83.40;;;;;;5073600;28;20481;-60
2023/06/15 00:43:06;;;;;;;25.37;11.47;;;13.40;84.60;;;;;;5070197;27;20478;-59
2023/06/15 00:45:34;;;;;;;35.17;15.40;;;13.20;85.60;;;;;;5065237;28;20478;-59
2023/06/15 00:48:01;;;;;;;28.73;13.53;;;13.10;86.40;;;;;;5067538;28;20470;-59
2023/06/15 00:50:30;;;;;;;28.80;11.90;;;13.00;86.00;;;;;;5086172;28;20524;-59
2023/06/15 00:53:00;;;;;;;34.53;15.00;;;13.10;86.40;;;;;;5072624;28;20544;-59
2023/06/15 00:55:27;;;;;;;28.07;13.60;;;13.10;85.70;;;;;;5055347;28;20490;-59
2023/06/15 00:57:56;;;;;;;26.23;13.03;;;13.20;86.20;;;;;;5074275;28;20827;-59
2023/06/15 01:00:23;;;;;;;41.00;14.70;;;13.20;85.70;;;;;;5061620;28;20832;-59
2023/06/15 01:02:56;;;;;;;24.43;12.67;;;13.20;85.40;;;;;;5086766;28;20803;-59
2023/06/15 01:05:24;;;;;;;27.30;12.70;;;13.20;85.30;;;;;;5074731;28;20676;-59
2023/06/15 01:07:53;;;;;;;27.27;11.67;;;13.20;85.30;;;;;;5063217;28;20946;-59
2023/06/15 01:10:23;;;;;;;26.60;12.80;;;13.80;86.40;;;;;;5076124;27;20680;-59
2023/06/15 01:12:54;;;;;;;19.20;11.20;;;13.30;86.20;;;;;;5067833;27;20484;-59
2023/06/15 01:15:22;;;;;;;31.67;12.93;;;13.30;85.60;;;;;;5062307;27;20481;-59
2023/06/15 01:17:55;;;;;;;24.47;12.90;;;13.60;85.80;;;;;;5075763;27;20489;-59
2023/06/15 01:20:27;;;;;;;21.97;12.00;;;13.00;85.80;;;;;;5070487;28;20818;-59
2023/06/15 01:23:01;;;;;;;23.43;11.63;;;12.90;86.40;;;;;;5065998;28;21003;-59
2023/06/15 01:25:33;;;;;;;20.27;11.43;;;12.90;85.70;;;;;;5096402;27;20492;-59
2023/06/15 01:28:03;;;;;;;23.47;11.77;;;13.00;85.70;;;;;;5081071;28;20482;-59
2023/06/15 01:30:33;;;;;;;26.33;13.50;;;13.00;86.40;;;;;;5072204;27;21015;-59
2023/06/15 01:33:00;;;;;;;31.57;14.67;;;13.10;86.30;;;;;;5090654;27;20485;-59
2023/06/15 01:35:27;;;;;;;37.50;13.10;;;13.10;85.80;;;;;;5076201;28;20867;-59
2023/06/15 01:37:53;;;;;;;29.00;13.43;;;13.10;85.60;;;;;;5080007;28;20475;-59
2023/06/15 01:40:20;;;;;;;21.93;12.27;;;13.10;85.30;;;;;;5079727;28;20478;-59
2023/06/15 01:42:48;;;;;;;38.70;12.63;;;13.00;85.40;;;;;;5081206;28;20481;-59
2023/06/15 01:45:18;;;;;;;20.10;11.93;;;13.00;85.10;;;;;;5081670;28;20553;-59
2023/06/15 01:47:45;;;;;;;32.37;13.47;;;13.00;85.60;;;;;;5078979;28;20473;-59
2023/06/15 01:50:13;;;;;;;25.60;11.87;;;13.00;85.80;;;;;;5069453;28;21832;-58
2023/06/15 01:52:40;;;;;;;26.50;12.57;;;12.90;85.90;;;;;;5080871;28;20584;-58
2023/06/15 01:55:08;;;;;;;27.20;13.43;;;12.80;86.90;;;;;;5072526;28;21135;-59
2023/06/15 01:57:39;;;;;;;25.80;10.90;;;12.60;87.30;;;;;;5077858;28;20535;-58
2023/06/15 02:00:07;;;;;;;25.10;12.83;;;12.60;87.50;;;;;;5083152;28;20480;-59
2023/06/15 02:02:36;;;;;;;20.03;10.63;;;12.70;87.40;;;;;;5096840;28;20473;-59
2023/06/15 02:05:05;;;;;;;30.73;12.90;;;12.70;87.10;;;;;;5068676;28;20481;-59
2023/06/15 02:07:33;;;;;;;20.30;12.70;;;12.70;87.30;;;;;;5071729;28;20532;-59
2023/06/15 02:10:00;;;;;;;22.57;12.93;;;12.70;87.20;;;;;;5072371;28;20478;-59
2023/06/15 02:12:26;;;;;;;19.87;12.37;;;12.60;86.90;;;;;;5056905;28;20529;-59
2023/06/15 02:14:54;;;;;;;25.00;13.40;;;12.60;87.40;;;;;;5079645;28;20768;-59
2023/06/15 02:17:23;;;;;;;20.70;12.20;;;12.60;87.90;;;;;;5081282;28;20474;-59
2023/06/15 02:19:51;;;;;;;28.70;12.53;;;12.50;88.20;;;;;;5058942;28;21013;-59
2023/06/15 02:22:18;;;;;;;23.07;14.00;;;12.50;88.20;;;;;;5070350;28;20482;-59
2023/06/15 02:24:45;;;;;;;22.07;12.93;;;12.40;88.40;;;;;;5085797;27;20516;-58
2023/06/15 02:27:14;;;;;;;23.07;13.00;;;12.40;88.40;;;;;;5066306;28;20484;-59
2023/06/15 02:29:41;;;;;;;24.40;11.83;;;12.40;87.50;;;;;;5072828;28;21094;-58
2023/06/15 02:32:09;;;;;;;20.20;12.60;;;12.50;87.80;;;;;;5054750;28;20993;-59
2023/06/15 02:34:36;;;;;;;19.13;10.93;;;12.50;88.20;;;;;;5060154;28;20624;-59
2023/06/15 02:37:05;;;;;;;22.43;13.30;;;12.50;88.10;;;;;;5069597;28;20493;-59
2023/06/15 02:39:32;;;;;;;41.90;14.10;;;12.60;88.60;;;;;;5074085;28;20480;-59
2023/06/15 02:41:59;;;;;;;20.83;12.40;;;12.60;88.70;;;;;;5038928;28;20526;-59
2023/06/15 02:44:26;;;;;;;30.03;12.20;;;12.70;88.70;;;;;;5056138;28;20527;-59
2023/06/15 02:46:53;;;;;;;16.23;10.53;;;12.70;88.80;;;;;;5064993;28;20473;-59
2023/06/15 02:49:19;;;;;;;19.00;12.50;;;12.80;89.00;;;;;;5067788;28;20482;-59
2023/06/15 02:51:47;;;;;;;21.93;13.00;;;12.80;88.30;;;;;;5058403;28;20486;-59
2023/06/15 02:54:16;;;;;;;21.73;12.70;;;12.90;88.80;;;;;;5059448;28;20478;-58
2023/06/15 02:56:43;;;;;;;19.53;11.77;;;12.90;88.10;;;;;;5054343;27;20492;-58
2023/06/15 02:59:10;;;;;;;26.93;12.73;;;12.90;88.80;;;;;;5089227;27;20844;-58
2023/06/15 03:01:41;;;;;;;25.33;11.70;;;12.90;89.00;;;;;;5053163;28;20568;-58
2023/06/15 03:04:14;;;;;;;25.70;12.93;;;12.90;89.30;;;;;;5081069;28;21206;-58
2023/06/15 03:06:43;;;;;;;22.63;10.70;;;;;;;;;;5057798;28;20470;-58
2023/06/15 03:09:10;;;;;;;22.20;11.80;;;12.80;89.00;;;;;;5052307;28;20486;-58
2023/06/15 03:11:39;;;;;;;18.40;10.63;;;12.90;88.00;;;;;;5058127;28;20483;-58
2023/06/15 03:14:07;;;;;;;30.33;13.83;;;12.90;88.50;;;;;;5054096;28;20555;-58
2023/06/15 03:16:39;;;;;;;23.40;13.13;;;12.90;89.20;;;;;;5050083;28;20482;-58
2023/06/15 03:19:05;;;;;;;23.50;12.60;;;12.90;90.00;;;;;;5069891;27;20547;-59
2023/06/15 03:21:32;;;;;;;34.10;11.77;;;13.00;89.80;;;;;;5083289;27;20978;-59
2023/06/15 03:23:59;;;;;;;27.33;15.17;;;13.10;90.00;;;;;;5079599;27;20484;-59
2023/06/15 03:26:27;;;;;;;29.80;15.00;;;13.10;89.80;;;;;;5072174;27;20482;-59
2023/06/15 03:28:57;;;;;;;19.93;10.80;;;13.20;89.90;;;;;;5072612;28;22045;-59
2023/06/15 03:31:27;;;;;;;35.27;17.67;;;13.20;90.00;;;;;;5069895;28;20478;-59
2023/06/15 03:33:54;;;;;;;28.00;14.83;;;13.30;89.90;;;;;;5064958;28;20488;-58
2023/06/15 03:36:29;;;;;;;38.93;16.33;;;13.40;90.10;;;;;;5073449;27;20478;-58
2023/06/15 03:38:56;;;;;;;26.80;13.30;;;13.40;89.60;;;;;;5078486;27;20908;-58
2023/06/15 03:41:23;;;;;;;40.73;17.33;;;13.50;89.50;;;;;;5023558;28;20486;-59
2023/06/15 03:43:50;;;;;;;17.20;12.00;;;13.50;89.10;;;;;;5073038;28;20488;-59
2023/06/15 03:46:19;;;;;;;37.73;16.53;;;13.60;89.10;;;;;;5063847;27;20528;-59
2023/06/15 03:48:46;;;;;;;23.53;12.70;;;13.50;89.20;;;;;;5079259;27;20495;-59
2023/06/15 03:51:13;;;;;;;25.63;13.67;;;13.60;90.00;;;;;;5086687;28;20493;-59
2023/06/15 03:53:43;;;;;;;21.30;12.33;;;13.60;89.60;;;;;;5072453;28;20841;-59
2023/06/15 03:56:09;;;;;;;28.97;14.43;;;13.70;89.30;;;;;;5066738;28;21002;-59
2023/06/15 03:58:36;;;;;;;27.87;14.60;;;13.70;89.30;;;;;;5075548;28;20979;-59
2023/06/15 04:01:04;;;;;;;23.93;12.20;;;13.60;90.00;;;;;;5079833;27;21075;-59
2023/06/15 04:03:34;;;;;;;15.70;11.23;;;13.60;89.40;;;;;;5071923;28;20558;-59
2023/06/15 04:06:02;;;;;;;27.40;13.60;;;13.60;89.60;;;;;;5070784;28;20563;-59
2023/06/15 04:09:05;;;;;;;22.73;12.53;;;13.70;90.00;;;;;;5059122;28;20989;-59
2023/06/15 04:11:32;;;;;;;17.73;11.47;;;13.70;89.70;;;;;;5066387;28;20493;-59
2023/06/15 04:13:58;;;;;;;20.63;12.40;;;13.80;89.70;;;;;;5069784;28;20550;-59
2023/06/15 04:16:25;;;;;;;31.13;14.80;;;13.80;89.50;;;;;;5058161;28;20850;-59
2023/06/15 04:18:54;;;;;;;28.50;14.93;;;13.80;88.90;;;;;;5066992;28;20485;-59
2023/06/15 04:21:21;;;;;;;41.77;16.57;;;13.90;89.60;;;;;;5066242;28;20474;-59
2023/06/15 04:23:47;;;;;;;24.20;12.37;;;14.00;90.00;;;;;;5065444;28;20478;-58
2023/06/15 04:26:14;;;;;;;38.17;18.73;;;14.00;90.10;;;;;;5069103;27;20493;-59
2023/06/15 04:28:45;;;;;;;42.37;15.37;;;14.10;90.30;;;;;;5070582;27;20555;-59
2023/06/15 04:31:14;;;;;;;29.53;16.60;;;14.10;90.40;;;;;;5068068;27;20511;-59
2023/06/15 04:33:42;;;;;;;27.77;15.23;;;14.20;90.40;;;;;;5055839;28;21063;-59
2023/06/15 04:36:12;;;;;;;30.87;15.37;;;14.40;90.20;;;;;;5059346;28;20569;-59
2023/06/15 04:38:40;;;;;;;18.60;11.83;;;14.40;90.40;;;;;;5068569;28;20482;-59
2023/06/15 04:41:07;;;;;;;23.70;13.20;;;14.50;90.40;;;;;;5073590;28;20485;-59
2023/06/15 04:43:34;;;;;;;19.83;12.63;;;14.70;90.50;;;;;;5034336;28;20471;-59
2023/06/15 04:46:02;;;;;;;23.97;14.97;;;14.70;90.30;;;;;;5048156;28;20483;-59
2023/06/15 04:48:28;;;;;;;26.70;14.13;;;14.80;90.30;;;;;;5070352;28;20869;-59
2023/06/15 04:50:56;;;;;;;26.47;13.37;;;14.90;90.20;;;;;;5062651;28;21052;-58
2023/06/15 04:53:24;;;;;;;25.53;14.23;;;14.90;90.40;;;;;;5048018;28;20479;-58
2023/06/15 04:55:51;;;;;;;24.80;13.53;;;15.00;90.40;;;;;;5047882;28;20494;-58
2023/06/15 04:58:18;;;;;;;36.23;16.67;;;15.20;90.40;;;;;;5071258;28;20478;-59
2023/06/15 05:00:45;;;;;;;25.97;13.57;;;15.20;90.40;;;;;;5059090;28;20482;-59
2023/06/15 05:03:12;;;;;;;20.20;12.83;;;15.40;90.50;;;;;;5055800;28;20908;-59
2023/06/15 05:05:39;;;;;;;28.00;13.53;;;15.50;90.60;;;;;;5076124;28;21004;-59
2023/06/15 05:08:06;;;;;;;31.00;15.93;;;15.60;90.30;;;;;;5072609;28;21046;-59
2023/06/15 05:10:34;;;;;;;23.93;13.90;;;15.70;90.20;;;;;;5050327;28;21208;-59
2023/06/15 05:13:00;;;;;;;22.00;13.03;;;15.80;90.00;;;;;;5073840;28;20485;-59
2023/06/15 05:15:27;;;;;;;24.60;13.90;;;15.90;90.00;;;;;;5058871;28;20481;-59
2023/06/15 05:17:54;;;;;;;21.57;11.87;;;16.00;89.80;;;;;;5087805;28;20478;-59
2023/06/15 05:20:21;;;;;;;35.80;15.40;;;16.10;89.50;;;;;;5074699;28;20894;-59
2023/06/15 05:22:48;;;;;;;17.63;10.43;;;16.20;89.50;;;;;;5067082;28;20798;-59
2023/06/15 05:25:15;;;;;;;31.53;14.97;;;16.30;89.50;;;;;;5062006;28;20727;-59
2023/06/15 05:27:43;;;;;;;32.80;12.67;;;16.40;87.90;;;;;;5065086;28;20514;-59
2023/06/15 05:30:11;;;;;;;25.67;12.73;;;16.50;88.00;;;;;;5070827;28;20479;-59
2023/06/15 05:32:39;;;;;;;19.40;11.47;;;;;;;;;;5057955;28;20482;-59
2023/06/15 05:35:07;;;;;;;24.30;12.97;;;16.70;88.30;;;;;;5063232;28;20993;-59
2023/06/15 05:37:34;;;;;;;22.43;11.50;;;16.70;87.60;;;;;;5051617;28;21290;-59
2023/06/15 05:40:02;;;;;;;20.83;10.97;;;16.80;87.20;;;;;;5040647;28;20474;-59
2023/06/15 05:42:29;;;;;;;30.17;13.27;;;17.00;87.30;;;;;;5055181;28;21046;-59
2023/06/15 05:44:57;;;;;;;24.90;12.50;;;17.00;86.80;;;;;;5064626;28;20473;-59
2023/06/15 05:47:24;;;;;;;39.67;16.17;;;17.20;86.80;;;;;;5066551;28;20489;-59
2023/06/15 05:49:51;;;;;;;27.00;12.83;;;17.20;87.00;;;;;;5058055;28;20546;-59
2023/06/15 05:52:19;;;;;;;42.60;15.90;;;17.30;86.50;;;;;;5076599;28;20524;-59
2023/06/15 05:54:46;;;;;;;27.87;11.37;;;17.40;86.60;;;;;;5072678;28;20502;-59
2023/06/15 05:57:14;;;;;;;29.63;13.37;;;17.50;86.20;;;;;;5058674;28;20479;-59
2023/06/15 05:59:40;;;;;;;21.73;10.97;;;17.60;86.00;;;;;;5081753;28;20741;-59
2023/06/15 06:02:09;;;;;;;17.20;9.20;;;17.70;85.80;;;;;;5058876;28;20563;-58
2023/06/15 06:04:36;;;;;;;28.03;12.83;;;17.80;86.70;;;;;;5063799;28;20486;-59
2023/06/15 06:07:05;;;;;;;30.73;14.63;;;17.90;86.10;;;;;;5049145;28;20477;-59
2023/06/15 06:09:33;;;;;;;17.10;9.70;;;18.00;86.10;;;;;;5053613;28;20874;-58
2023/06/15 06:12:00;;;;;;;18.53;10.60;;;18.10;86.10;;;;;;5042771;28;20474;-59
2023/06/15 06:14:27;;;;;;;30.30;11.93;;;18.10;85.10;;;;;;5072728;28;20892;-59
2023/06/15 06:16:54;;;;;;;19.63;8.70;;;18.20;85.10;;;;;;5075981;28;20486;-59
2023/06/15 06:19:22;;;;;;;29.93;15.43;;;18.30;85.50;;;;;;5071411;27;20497;-59
2023/06/15 06:21:49;;;;;;;18.33;11.60;;;18.40;84.80;;;;;;5071652;27;20483;-59
2023/06/15 06:24:16;;;;;;;22.97;10.20;;;18.50;84.80;;;;;;5075455;28;20474;-59
2023/06/15 06:26:44;;;;;;;13.70;9.27;;;18.60;84.20;;;;;;5072644;27;20485;-59
2023/06/15 06:29:10;;;;;;;16.80;10.83;;;18.70;84.30;;;;;;5076738;27;20480;-59
2023/06/15 06:31:37;;;;;;;17.10;8.70;;;18.80;84.00;;;;;;5063839;27;20488;-59
2023/06/15 06:34:05;;;;;;;18.27;10.97;;;19.00;84.00;;;;;;5075417;27;20470;-59
2023/06/15 06:36:34;;;;;;;14.13;9.80;;;19.10;82.70;;;;;;5049486;28;20489;-59
2023/06/15 06:39:01;;;;;;;21.30;11.77;;;19.30;81.60;;;;;;5050727;28;20486;-59
2023/06/15 06:41:27;;;;;;;19.30;11.17;;;19.40;81.70;;;;;;5065926;28;20483;-59
2023/06/15 06:43:54;;;;;;;20.37;10.77;;;19.50;81.60;;;;;;5065606;28;20987;-59
2023/06/15 06:46:22;;;;;;;30.23;12.20;;;19.70;80.70;;;;;;5071590;28;20482;-60
2023/06/15 06:48:50;;;;;;;18.67;11.03;;;19.80;81.40;;;;;;5083218;27;20570;-59
2023/06/15 06:51:17;;;;;;;22.97;13.07;;;20.00;81.50;;;;;;5066603;28;20800;-59
2023/06/15 06:53:46;;;;;;;23.10;9.27;;;20.20;80.10;;;;;;5081014;28;20481;-59
2023/06/15 06:56:13;;;;;;;23.20;12.67;;;20.30;79.60;;;;;;5068050;28;20488;-60
2023/06/15 06:58:40;;;;;;;16.53;9.93;;;20.50;79.70;;;;;;5065169;27;20487;-59
2023/06/15 07:01:07;;;;;;;17.63;9.07;;;20.80;79.80;;;;;;5081647;27;20481;-59
2023/06/15 07:03:34;;;;;;;14.60;9.00;;;20.90;80.20;;;;;;5071346;27;20466;-59
2023/06/15 07:06:00;;;;;;;21.30;11.50;;;21.10;80.80;;;;;;5067254;28;20807;-60
2023/06/15 07:08:27;;;;;;;15.33;9.03;;;21.40;77.20;;;;;;5051499;28;20482;-59
2023/06/15 07:10:55;;;;;;;14.30;9.90;;;21.50;78.00;;;;;;5058485;28;20517;-60
2023/06/15 07:13:22;;;;;;;25.30;13.07;;;21.70;78.00;;;;;;5073518;28;20490;-60
2023/06/15 07:15:54;;;;;;;17.50;9.67;;;22.00;77.20;;;;;;5073017;28;20484;-59
2023/06/15 07:18:21;;;;;;;26.33;11.40;;;22.20;77.10;;;;;;5049670;28;20485;-59
2023/06/15 07:20:53;;;;;;;14.13;9.53;;;22.50;76.90;;;;;;5027350;28;20486;-60
2023/06/15 07:23:20;;;;;;;22.87;13.77;;;22.70;76.20;;;;;;5046878;28;20521;-60
2023/06/15 07:25:47;;;;;;;25.23;11.87;;;22.80;75.10;;;;;;5049705;28;20488;-59
2023/06/15 07:28:15;;;;;;;16.17;10.30;;;23.10;74.40;;;;;;5055608;28;20481;-60
2023/06/15 07:30:43;;;;;;;21.63;11.80;;;23.20;74.60;;;;;;5056282;28;20486;-59
2023/06/15 07:33:10;;;;;;;13.80;8.93;;;23.40;74.00;;;;;;5056209;28;20493;-60
2023/06/15 07:35:37;;;;;;;13.70;8.60;;;23.50;73.20;;;;;;5047956;28;20534;-60
2023/06/15 07:38:04;;;;;;;13.80;8.70;;;23.60;74.60;;;;;;5062811;28;20480;-60
2023/06/15 07:40:31;;;;;;;10.93;8.40;;;23.80;72.70;;;;;;5053437;28;20491;-60
2023/06/15 07:42:58;;;;;;;12.43;7.57;;;24.00;73.60;;;;;;5055084;28;20498;-59
2023/06/15 07:45:26;;;;;;;22.43;10.93;;;24.20;74.70;;;;;;5052659;27;21234;-60
2023/06/15 07:47:53;;;;;;;10.77;9.50;;;24.30;71.50;;;;;;5078167;28;20594;-60
2023/06/15 07:50:20;;;;;;;12.43;9.60;;;24.50;72.80;;;;;;5058972;28;20483;-59
2023/06/15 07:52:46;;;;;;;10.53;8.97;;;24.60;71.30;;;;;;5070100;28;20503;-60
2023/06/15 07:55:13;;;;;;;14.27;9.50;;;24.70;72.20;;;;;;5051837;28;20548;-59
2023/06/15 07:57:40;;;;;;;11.27;8.73;;;24.90;72.50;;;;;;5061142;28;20501;-60
2023/06/15 08:00:08;;;;;;;11.60;9.10;;;24.90;71.70;;;;;;5037914;28;20480;-60
2023/06/15 08:02:36;;;;;;;9.83;7.87;;;25.00;70.70;;;;;;5070606;28;20575;-60
2023/06/15 08:05:03;;;;;;;19.47;8.40;;;25.10;70.90;;;;;;5073474;28;20719;-59
2023/06/15 08:07:31;;;;;;;12.47;9.10;;;25.20;69.60;;;;;;5059376;28;20485;-60
2023/06/15 08:09:59;;;;;;;12.80;9.70;;;25.30;69.30;;;;;;5066626;28;20481;-60
2023/06/15 08:12:26;;;;;;;17.63;10.00;;;25.40;69.00;;;;;;5052987;28;20488;-60
2023/06/15 08:14:53;;;;;;;11.40;8.60;;;25.50;69.80;;;;;;5064494;28;20762;-60
2023/06/15 08:17:19;;;;;;;17.80;12.53;;;25.60;70.00;;;;;;5055219;28;20469;-60
2023/06/15 08:19:48;;;;;;;17.53;8.50;;;25.90;69.00;;;;;;5061985;28;20477;-60
2023/06/15 08:22:15;;;;;;;10.10;6.23;;;26.00;69.80;;;;;;5068002;28;20574;-60
2023/06/15 08:24:41;;;;;;;9.47;8.47;;;26.10;67.70;;;;;;5067312;28;20493;-60
2023/06/15 08:27:10;;;;;;;12.57;8.33;;;26.20;69.10;;;;;;5058599;28;20478;-60
2023/06/15 08:29:37;;;;;;;15.63;10.20;;;26.30;69.00;;;;;;5052120;28;20651;-60
2023/06/15 08:32:08;;;;;;;10.07;8.60;;;26.40;68.20;;;;;;5065722;28;20481;-60
2023/06/15 08:34:35;;;;;;;13.90;8.17;;;26.40;66.80;;;;;;5068109;28;20817;-60
2023/06/15 08:37:04;;;;;;;8.43;7.60;;;26.50;68.20;;;;;;5070859;28;21007;-60
2023/06/15 08:39:31;;;;;;;10.50;8.63;;;26.70;67.10;;;;;;5052097;28;21030;-60
2023/06/15 08:42:01;;;;;;;14.40;7.47;;;26.90;68.50;;;;;;5054560;28;20587;-60
2023/06/15 08:44:27;;;;;;;10.83;7.50;;;27.00;67.00;;;;;;5072132;27;20478;-61
2023/06/15 08:46:56;;;;;;;9.87;7.70;;;27.10;66.40;;;;;;5065039;27;20484;-61
2023/06/15 08:49:24;;;;;;;12.53;10.90;;;27.20;65.30;;;;;;5075017;27;20497;-61
2023/06/15 08:51:52;;;;;;;11.47;8.17;;;27.30;64.40;;;;;;5070632;27;20472;-60
2023/06/15 08:54:22;;;;;;;11.33;9.10;;;27.40;66.30;;;;;;5067758;28;20489;-61
2023/06/15 08:56:49;;;;;;;8.57;7.60;;;27.40;65.30;;;;;;5073336;28;20560;-61
2023/06/15 08:59:17;;;;;;;11.73;10.13;;;27.50;65.40;;;;;;5046375;28;20485;-61
2023/06/15 09:01:44;;;;;;;8.80;7.90;;;27.50;64.60;;;;;;5065292;28;20476;-61
2023/06/15 09:04:11;;;;;;;8.70;7.90;;;27.60;65.60;;;;;;5061558;28;20473;-61
2023/06/15 09:06:38;;;;;;;10.80;8.00;;;27.80;64.70;;;;;;5062555;28;20483;-61
2023/06/15 09:09:05;;;;;;;8.47;7.67;;;27.80;64.70;;;;;;5068494;28;20481;-61
2023/06/15 09:11:39;;;;;;;8.70;7.90;;;28.00;63.70;;;;;;5057096;28;20496;-61
2023/06/15 09:14:09;;;;;;;8.17;7.37;;;28.20;64.30;;;;;;5062741;28;20567;-61
2023/06/15 09:16:36;;;;;;;17.50;7.10;;;28.20;61.70;;;;;;5056959;28;20485;-60
2023/06/15 09:19:10;;;;;;;11.03;8.47;;;28.20;62.10;;;;;;5070997;28;20482;-61
2023/06/15 09:21:41;;;;;;;7.57;6.87;;;28.20;62.00;;;;;;5062759;28;20484;-61
2023/06/15 09:24:09;;;;;;;10.60;9.37;;;28.30;61.00;;;;;;5062132;28;20480;-61
2023/06/15 09:26:39;;;;;;;11.17;8.33;;;28.30;60.60;;;;;;5067630;28;21032;-61
2023/06/15 09:29:11;;;;;;;8.20;7.30;;;29.90;63.20;;;;;;5073749;28;20535;-62
2023/06/15 09:31:39;;;;;;;11.70;8.20;;;28.30;59.60;;;;;;5061133;28;20843;-60
2023/06/15 09:34:08;;;;;;;10.23;8.50;;;28.40;61.40;;;;;;5094061;27;20513;-60
2023/06/15 09:36:41;;;;;;;7.70;6.90;;;28.50;61.40;;;;;;5035275;27;21089;-60
2023/06/15 09:39:10;;;;;;;8.40;7.60;;;28.70;61.00;;;;;;5045286;28;20459;-60
2023/06/15 09:41:52;;;;;;;7.23;6.37;;;28.70;59.30;;;;;;5069989;28;20496;-60
2023/06/15 09:44:21;;;;;;;14.30;10.50;;;28.90;60.20;;;;;;5067540;28;20544;-60
2023/06/15 09:46:49;;;;;;;12.23;8.27;;;29.00;59.00;;;;;;5071102;28;20887;-60
2023/06/15 09:49:21;;;;;;;9.03;8.10;;;29.20;60.00;;;;;;5051598;28;20881;-60
2023/06/15 09:51:50;;;;;;;8.90;8.00;;;29.30;59.50;;;;;;5036332;28;20901;-60
2023/06/15 09:54:18;;;;;;;12.53;8.40;;;29.40;58.70;;;;;;5056256;28;20486;-60
2023/06/15 09:56:49;;;;;;;7.70;6.67;;;29.50;58.80;;;;;;5075443;28;21072;-60
2023/06/15 09:59:17;;;;;;;9.00;8.07;;;29.50;59.90;;;;;;5067892;27;20497;-60
2023/06/15 10:01:46;;;;;;;12.40;7.20;;;29.50;57.90;;;;;;5071733;27;20473;-60
2023/06/15 10:04:14;;;;;;;7.43;6.63;;;29.40;56.60;;;;;;5085643;28;20495;-61
2023/06/15 10:06:45;;;;;;;8.20;7.50;;;29.40;57.10;;;;;;5056917;28;20990;-60
2023/06/15 10:09:16;;;;;;;9.83;8.17;;;29.20;56.30;;;;;;5070945;28;21010;-60
2023/06/15 10:11:46;;;;;;;10.10;7.40;;;29.20;56.60;;;;;;5060493;28;20481;-61
2023/06/15 10:14:21;;;;;;;7.73;6.40;;;29.40;58.30;;;;;;5068862;28;20568;-60
2023/06/15 10:16:53;;;;;;;10.97;9.13;;;29.40;56.20;;;;;;5065747;28;20480;-60
2023/06/15 10:19:22;;;;;;;15.10;9.90;;;29.50;56.40;;;;;;5068206;28;20733;-60
2023/06/15 10:21:50;;;;;;;11.27;7.50;;;29.60;56.20;;;;;;5065699;28;20824;-60
2023/06/15 10:24:20;;;;;;;10.13;6.97;;;29.70;57.30;;;;;;5054661;28;20571;-60
2023/06/15 10:26:47;;;;;;;7.37;6.57;;;29.70;56.40;;;;;;5057159;28;20485;-61
2023/06/15 10:29:21;;;;;;;7.23;6.53;;;29.70;55.60;;;;;;5065220;28;20474;-60
2023/06/15 10:31:59;;;;;;;12.57;7.80;;;29.80;56.30;;;;;;5065925;27;20482;-60
2023/06/15 10:34:30;;;;;;;10.20;8.70;;;29.90;56.30;;;;;;5070053;27;20473;-61
2023/06/15 10:37:04;;;;;;;13.00;7.27;;;29.90;56.40;;;;;;5079965;27;20481;-61
2023/06/15 10:39:36;;;;;;;10.67;6.60;;;29.90;57.50;;;;;;5068016;27;20499;-61
2023/06/15 10:42:07;;;;;;;12.40;7.83;;;30.00;57.20;;;;;;5072505;27;21103;-61
2023/06/15 10:44:36;;;;;;;6.97;5.77;;;30.10;55.70;;;;;;5077187;27;20861;-60
2023/06/15 10:47:07;;;;;;;15.47;6.77;;;30.20;54.20;;;;;;5075790;28;20475;-61
2023/06/15 10:49:34;;;;;;;7.63;6.83;;;30.30;55.90;;;;;;5082519;27;20550;-61
2023/06/15 10:52:02;;;;;;;12.07;7.30;;;30.40;55.10;;;;;;5068061;27;20492;-61
2023/06/15 10:54:29;;;;;;;9.97;6.27;;;30.60;55.10;;;;;;5077347;27;21884;-60
2023/06/15 10:56:58;;;;;;;14.10;7.33;;;30.60;54.20;;;;;;5078855;27;20456;-61
2023/06/15 10:59:47;;;;;;;9.03;6.70;;;30.60;54.70;;;;;;5051824;28;20469;-61
2023/06/15 11:02:48;;;;;;;12.43;9.03;;;30.60;55.50;;;;;;5079543;27;20454;-61
2023/06/15 11:05:19;;;;;;;9.33;8.40;;;30.20;49.60;;;;;;5065212;27;20531;-61
2023/06/15 11:07:49;;;;;;;8.10;6.30;;;29.90;52.00;;;;;;5053540;28;20490;-61
2023/06/15 11:10:17;;;;;;;12.17;8.27;;;30.00;53.90;;;;;;5051230;27;20480;-61
2023/06/15 11:12:46;;;;;;;9.10;8.20;;;30.10;54.10;;;;;;5086068;27;20523;-61
2023/06/15 11:15:16;;;;;;;10.83;5.83;;;30.40;53.00;;;;;;5059347;27;20492;-61
2023/06/15 11:17:57;;;;;;;13.57;8.87;;;30.40;53.40;;;;;;5080615;28;20488;-61
2023/06/15 11:20:59;;;;;;;11.43;5.40;;;30.50;53.10;;;;;;5069307;27;20481;-61
2023/06/15 11:23:31;;;;;;;27.63;10.57;;;30.50;54.30;;;;;;5097176;27;20508;-61
2023/06/15 11:26:01;;;;;;;11.83;9.47;;;30.70;54.00;;;;;;5095643;27;20555;-61
2023/06/15 11:28:31;;;;;;;11.47;9.10;;;30.80;53.50;;;;;;5069733;27;20478;-61
2023/06/15 11:31:01;;;;;;;11.87;6.87;;;30.90;52.70;;;;;;5089316;27;20450;-61
2023/06/15 11:33:29;;;;;;;14.03;7.70;;;30.70;51.20;;;;;;5090373;27;20457;-61
2023/06/15 11:35:57;;;;;;;11.13;7.17;;;;;;;;;;5065787;27;20459;-61
2023/06/15 11:38:28;;;;;;;23.67;12.27;;;30.50;52.90;;;;;;5058646;27;20828;-61
2023/06/15 11:41:00;;;;;;;26.50;7.73;;;30.50;51.90;;;;;;5089699;27;20800;-61
2023/06/15 11:43:32;;;;;;;21.93;7.97;;;30.50;51.40;;;;;;5094443;27;20487;-61
2023/06/15 11:46:00;;;;;;;17.03;7.77;;;30.80;51.60;;;;;;5101708;27;20652;-61
2023/06/15 11:48:27;;;;;;;14.60;6.60;;;30.90;51.90;;;;;;5101308;27;20484;-61
2023/06/15 11:50:56;;;;;;;18.77;6.43;;;31.00;52.60;;;;;;5097733;27;20447;-61
2023/06/15 11:53:23;;;;;;;18.23;6.50;;;31.20;52.80;;;;;;5092780;27;20696;-61
2023/06/15 11:55:50;;;;;;;7.57;5.47;;;31.30;52.10;;;;;;5086313;27;20452;-61
2023/06/15 11:58:17;;;;;;;24.67;8.07;;;31.50;51.30;;;;;;5082214;27;20461;-61
2023/06/15 12:00:44;;;;;;;14.40;8.10;;;31.30;47.90;;;;;;5083229;27;20535;-62
2023/06/15 12:03:13;;;;;;;12.60;6.73;;;31.60;52.70;;;;;;5083534;27;20469;-61
2023/06/15 12:05:40;;;;;;;9.93;5.77;;;31.70;51.90;;;;;;5083159;27;20476;-61
2023/06/15 12:08:07;;;;;;;30.73;10.20;;;32.40;51.10;;;;;;5075984;27;20476;-61
2023/06/15 12:10:37;;;;;;;27.67;8.20;;;31.70;50.10;;;;;;5069819;28;20627;-61
2023/06/15 12:13:04;;;;;;;11.30;6.60;;;31.70;50.70;;;;;;5081986;27;20462;-61
2023/06/15 12:15:31;;;;;;;22.53;6.83;;;31.70;48.90;;;;;;5076531;27;20463;-61
2023/06/15 12:17:59;;;;;;;15.00;5.90;;;31.70;49.10;;;;;;5071823;28;20481;-61
2023/06/15 12:20:30;;;;;;;24.70;9.97;;;31.70;49.80;;;;;;5051756;28;20806;-61
2023/06/15 12:22:57;;;;;;;17.97;7.37;;;31.70;50.80;;;;;;5075634;27;20455;-61
2023/06/15 12:25:43;;;;;;;39.93;6.57;;;31.70;50.00;;;;;;5066314;28;20445;-61
2023/06/15 12:28:15;;;;;;;7.43;5.20;;;31.90;52.00;;;;;;5075573;27;20440;-62
2023/06/15 12:30:42;;;;;;;23.10;5.90;;;32.10;49.90;;;;;;5061110;27;20486;-62
2023/06/15 12:33:25;;;;;;;9.83;7.27;;;32.10;48.30;;;;;;5068098;28;20478;-62
2023/06/15 12:35:54;;;;;;;9.20;5.50;;;32.10;49.60;;;;;;5079622;27;20779;-61
2023/06/15 12:38:22;;;;;;;33.23;7.10;;;32.20;49.10;;;;;;5085521;27;20487;-62
2023/06/15 12:40:49;;;;;;;40.97;8.10;;;31.90;46.60;;;;;;5070534;27;20493;-61